sensor_id;sensor_type;location;lat;lon;timestamp;P1;durP1;ratioP1;P2;durP2;ratioP2
68097;SDS011;54886;47.036;15.466;2023-03-23T00:01:07;14.73;;;8.85;;
68097;SDS011;54886;47.036;15.466;2023-03-23T00:03:44;18.85;;;9.43;;
68097;SDS011;54886;47.036;15.466;2023-03-23T00:06:11;15.75;;;9.15;;
68097;SDS011;54886;47.036;15.466;2023-03-23T00:08:42;16.42;;;9.75;;
68097;SDS011;54886;47.036;15.466;2023-03-23T00:11:20;20.17;;;10.20;;
68097;SDS011;54886;47.036;15.466;2023-03-23T00:13:49;20.58;;;10.25;;
68097;SDS011;54886;47.036;15.466;2023-03-23T00:16:19;19.55;;;10.65;;
68097;SDS011;54886;47.036;15.466;2023-03-23T00:18:49;20.25;;;10.48;;
68097;SDS011;54886;47.036;15.466;2023-03-23T00:21:19;17.33;;;10.25;;
68097;SDS011;54886;47.036;15.466;2023-03-23T00:23:45;17.25;;;10.88;;
68097;SDS011;54886;47.036;15.466;2023-03-23T00:26:11;17.02;;;10.77;;
68097;SDS011;54886;47.036;15.466;2023-03-23T00:28:38;15.23;;;9.88;;
68097;SDS011;54886;47.036;15.466;2023-03-23T00:31:05;17.45;;;9.70;;
68097;SDS011;54886;47.036;15.466;2023-03-23T00:33:33;15.32;;;9.32;;
68097;SDS011;54886;47.036;15.466;2023-03-23T00:36:03;16.52;;;9.10;;
68097;SDS011;54886;47.036;15.466;2023-03-23T00:38:30;14.30;;;9.10;;
68097;SDS011;54886;47.036;15.466;2023-03-23T00:40:56;15.45;;;8.73;;
68097;SDS011;54886;47.036;15.466;2023-03-23T00:43:22;13.43;;;8.48;;
68097;SDS011;54886;47.036;15.466;2023-03-23T00:48:19;15.25;;;7.82;;
68097;SDS011;54886;47.036;15.466;2023-03-23T00:50:45;12.05;;;7.47;;
68097;SDS011;54886;47.036;15.466;2023-03-23T00:53:11;13.57;;;8.23;;
68097;SDS011;54886;47.036;15.466;2023-03-23T00:55:37;12.25;;;7.57;;
68097;SDS011;54886;47.036;15.466;2023-03-23T00:58:02;13.60;;;7.30;;
68097;SDS011;54886;47.036;15.466;2023-03-23T01:00:28;12.20;;;7.50;;
68097;SDS011;54886;47.036;15.466;2023-03-23T01:02:53;14.13;;;7.60;;
68097;SDS011;54886;47.036;15.466;2023-03-23T01:05:18;12.63;;;7.05;;
68097;SDS011;54886;47.036;15.466;2023-03-23T01:07:44;12.38;;;6.78;;
68097;SDS011;54886;47.036;15.466;2023-03-23T01:10:11;11.88;;;7.22;;
68097;SDS011;54886;47.036;15.466;2023-03-23T01:12:41;13.68;;;7.00;;
68097;SDS011;54886;47.036;15.466;2023-03-23T01:15:14;12.05;;;7.45;;
68097;SDS011;54886;47.036;15.466;2023-03-23T01:17:42;13.05;;;7.38;;
68097;SDS011;54886;47.036;15.466;2023-03-23T01:20:08;14.10;;;6.90;;
68097;SDS011;54886;47.036;15.466;2023-03-23T01:22:35;12.60;;;7.13;;
68097;SDS011;54886;47.036;15.466;2023-03-23T01:25:01;11.00;;;6.85;;
68097;SDS011;54886;47.036;15.466;2023-03-23T01:27:27;11.68;;;7.10;;
68097;SDS011;54886;47.036;15.466;2023-03-23T01:29:52;12.73;;;7.00;;
68097;SDS011;54886;47.036;15.466;2023-03-23T01:32:17;14.15;;;6.18;;
68097;SDS011;54886;47.036;15.466;2023-03-23T01:34:43;10.57;;;6.68;;
68097;SDS011;54886;47.036;15.466;2023-03-23T01:37:08;12.07;;;6.70;;
68097;SDS011;54886;47.036;15.466;2023-03-23T01:39:35;11.82;;;6.53;;
68097;SDS011;54886;47.036;15.466;2023-03-23T01:46:55;13.00;;;6.78;;
68097;SDS011;54886;47.036;15.466;2023-03-23T01:49:21;9.80;;;6.18;;
68097;SDS011;54886;47.036;15.466;2023-03-23T01:51:55;10.63;;;6.15;;
68097;SDS011;54886;47.036;15.466;2023-03-23T01:54:23;11.00;;;6.07;;
68097;SDS011;54886;47.036;15.466;2023-03-23T01:56:59;11.40;;;6.35;;
68097;SDS011;54886;47.036;15.466;2023-03-23T01:59:32;10.25;;;6.10;;
68097;SDS011;54886;47.036;15.466;2023-03-23T02:02:00;9.88;;;5.80;;
68097;SDS011;54886;47.036;15.466;2023-03-23T02:04:27;11.10;;;6.18;;
68097;SDS011;54886;47.036;15.466;2023-03-23T02:06:53;9.10;;;5.55;;
68097;SDS011;54886;47.036;15.466;2023-03-23T02:09:21;9.70;;;5.28;;
68097;SDS011;54886;47.036;15.466;2023-03-23T02:11:47;9.88;;;5.35;;
68097;SDS011;54886;47.036;15.466;2023-03-23T02:39:20;9.43;;;5.47;;
68097;SDS011;54886;47.036;15.466;2023-03-23T02:41:52;9.52;;;4.97;;
68097;SDS011;54886;47.036;15.466;2023-03-23T02:44:21;8.88;;;5.20;;
68097;SDS011;54886;47.036;15.466;2023-03-23T02:46:49;12.82;;;5.18;;
68097;SDS011;54886;47.036;15.466;2023-03-23T02:49:17;9.65;;;5.90;;
68097;SDS011;54886;47.036;15.466;2023-03-23T02:51:44;10.20;;;5.60;;
68097;SDS011;54886;47.036;15.466;2023-03-23T02:54:11;10.10;;;5.32;;
68097;SDS011;54886;47.036;15.466;2023-03-23T02:56:38;11.23;;;6.05;;
68097;SDS011;54886;47.036;15.466;2023-03-23T02:59:05;12.68;;;6.28;;
68097;SDS011;54886;47.036;15.466;2023-03-23T03:04:04;9.43;;;5.53;;
68097;SDS011;54886;47.036;15.466;2023-03-23T03:11:59;11.85;;;5.57;;
68097;SDS011;54886;47.036;15.466;2023-03-23T03:14:33;9.85;;;5.70;;
68097;SDS011;54886;47.036;15.466;2023-03-23T03:17:14;9.90;;;5.60;;
68097;SDS011;54886;47.036;15.466;2023-03-23T03:19:49;10.43;;;5.80;;
68097;SDS011;54886;47.036;15.466;2023-03-23T03:22:17;11.52;;;5.82;;
68097;SDS011;54886;47.036;15.466;2023-03-23T03:27:16;9.80;;;5.85;;
68097;SDS011;54886;47.036;15.466;2023-03-23T03:29:45;9.65;;;5.88;;
68097;SDS011;54886;47.036;15.466;2023-03-23T03:32:16;10.38;;;5.72;;
68097;SDS011;54886;47.036;15.466;2023-03-23T03:34:46;10.90;;;5.60;;
68097;SDS011;54886;47.036;15.466;2023-03-23T03:37:12;8.88;;;5.40;;
68097;SDS011;54886;47.036;15.466;2023-03-23T03:39:38;11.63;;;5.82;;
68097;SDS011;54886;47.036;15.466;2023-03-23T03:42:04;9.52;;;5.63;;
68097;SDS011;54886;47.036;15.466;2023-03-23T03:44:31;9.18;;;5.72;;
68097;SDS011;54886;47.036;15.466;2023-03-23T03:46:57;10.90;;;5.63;;
68097;SDS011;54886;47.036;15.466;2023-03-23T03:49:22;8.93;;;5.75;;
68097;SDS011;54886;47.036;15.466;2023-03-23T03:51:48;10.10;;;5.45;;
68097;SDS011;54886;47.036;15.466;2023-03-23T03:54:13;9.68;;;5.85;;
68097;SDS011;54886;47.036;15.466;2023-03-23T03:56:39;9.93;;;5.20;;
68097;SDS011;54886;47.036;15.466;2023-03-23T03:59:08;9.98;;;5.60;;
68097;SDS011;54886;47.036;15.466;2023-03-23T04:01:34;16.73;;;5.57;;
68097;SDS011;54886;47.036;15.466;2023-03-23T04:04:01;10.77;;;5.35;;
68097;SDS011;54886;47.036;15.466;2023-03-23T04:06:27;8.80;;;5.45;;
68097;SDS011;54886;47.036;15.466;2023-03-23T04:08:56;10.50;;;5.65;;
68097;SDS011;54886;47.036;15.466;2023-03-23T04:11:24;9.25;;;5.45;;
68097;SDS011;54886;47.036;15.466;2023-03-23T04:13:50;11.60;;;5.70;;
68097;SDS011;54886;47.036;15.466;2023-03-23T04:16:17;10.35;;;5.47;;
68097;SDS011;54886;47.036;15.466;2023-03-23T04:18:43;10.13;;;5.63;;
68097;SDS011;54886;47.036;15.466;2023-03-23T04:21:09;11.30;;;5.85;;
68097;SDS011;54886;47.036;15.466;2023-03-23T04:23:35;10.20;;;5.78;;
68097;SDS011;54886;47.036;15.466;2023-03-23T04:26:01;10.70;;;5.68;;
68097;SDS011;54886;47.036;15.466;2023-03-23T04:28:28;9.60;;;5.68;;
68097;SDS011;54886;47.036;15.466;2023-03-23T04:30:54;10.20;;;5.88;;
68097;SDS011;54886;47.036;15.466;2023-03-23T04:33:23;9.43;;;5.47;;
68097;SDS011;54886;47.036;15.466;2023-03-23T04:35:51;11.25;;;5.85;;
68097;SDS011;54886;47.036;15.466;2023-03-23T04:38:18;11.07;;;5.80;;
68097;SDS011;54886;47.036;15.466;2023-03-23T04:40:45;12.90;;;6.30;;
68097;SDS011;54886;47.036;15.466;2023-03-23T04:43:11;10.65;;;6.55;;
68097;SDS011;54886;47.036;15.466;2023-03-23T04:45:37;10.13;;;6.18;;
68097;SDS011;54886;47.036;15.466;2023-03-23T04:48:06;9.93;;;5.90;;
68097;SDS011;54886;47.036;15.466;2023-03-23T04:50:33;9.57;;;5.72;;
68097;SDS011;54886;47.036;15.466;2023-03-23T04:52:59;9.63;;;5.78;;
68097;SDS011;54886;47.036;15.466;2023-03-23T04:55:29;10.77;;;6.32;;
68097;SDS011;54886;47.036;15.466;2023-03-23T04:57:56;9.60;;;5.40;;
68097;SDS011;54886;47.036;15.466;2023-03-23T05:00:25;9.25;;;5.97;;
68097;SDS011;54886;47.036;15.466;2023-03-23T05:02:50;10.93;;;6.45;;
68097;SDS011;54886;47.036;15.466;2023-03-23T05:05:16;10.68;;;6.47;;
68097;SDS011;54886;47.036;15.466;2023-03-23T05:07:42;12.25;;;6.95;;
68097;SDS011;54886;47.036;15.466;2023-03-23T05:10:09;15.85;;;9.68;;
68097;SDS011;54886;47.036;15.466;2023-03-23T05:12:36;16.70;;;9.50;;
68097;SDS011;54886;47.036;15.466;2023-03-23T05:15:01;14.60;;;8.10;;
68097;SDS011;54886;47.036;15.466;2023-03-23T05:17:27;14.15;;;7.53;;
68097;SDS011;54886;47.036;15.466;2023-03-23T05:19:55;12.73;;;7.68;;
68097;SDS011;54886;47.036;15.466;2023-03-23T05:22:21;16.33;;;8.35;;
68097;SDS011;54886;47.036;15.466;2023-03-23T05:24:47;13.63;;;8.20;;
68097;SDS011;54886;47.036;15.466;2023-03-23T05:27:13;16.25;;;8.65;;
68097;SDS011;54886;47.036;15.466;2023-03-23T05:29:39;15.60;;;9.18;;
68097;SDS011;54886;47.036;15.466;2023-03-23T05:32:06;15.60;;;10.38;;
68097;SDS011;54886;47.036;15.466;2023-03-23T05:34:32;18.02;;;10.25;;
68097;SDS011;54886;47.036;15.466;2023-03-23T05:36:59;17.42;;;10.93;;
68097;SDS011;54886;47.036;15.466;2023-03-23T05:39:27;17.10;;;10.20;;
68097;SDS011;54886;47.036;15.466;2023-03-23T05:41:52;16.75;;;10.55;;
68097;SDS011;54886;47.036;15.466;2023-03-23T05:44:18;16.83;;;10.13;;
68097;SDS011;54886;47.036;15.466;2023-03-23T05:46:43;16.88;;;9.75;;
68097;SDS011;54886;47.036;15.466;2023-03-23T05:49:09;19.00;;;10.07;;
68097;SDS011;54886;47.036;15.466;2023-03-23T05:51:34;16.77;;;9.35;;
68097;SDS011;54886;47.036;15.466;2023-03-23T05:54:00;19.05;;;10.40;;
68097;SDS011;54886;47.036;15.466;2023-03-23T05:56:26;15.07;;;8.68;;
68097;SDS011;54886;47.036;15.466;2023-03-23T05:58:53;15.57;;;9.23;;
68097;SDS011;54886;47.036;15.466;2023-03-23T06:01:19;14.60;;;8.52;;
68097;SDS011;54886;47.036;15.466;2023-03-23T06:03:45;15.85;;;8.73;;
68097;SDS011;54886;47.036;15.466;2023-03-23T06:06:10;12.70;;;8.27;;
68097;SDS011;54886;47.036;15.466;2023-03-23T06:08:37;12.13;;;7.68;;
68097;SDS011;54886;47.036;15.466;2023-03-23T06:11:03;14.57;;;8.45;;
68097;SDS011;54886;47.036;15.466;2023-03-23T06:13:29;19.85;;;10.05;;
68097;SDS011;54886;47.036;15.466;2023-03-23T06:15:55;22.27;;;10.38;;
68097;SDS011;54886;47.036;15.466;2023-03-23T06:18:24;20.65;;;10.90;;
68097;SDS011;54886;47.036;15.466;2023-03-23T06:20:50;20.50;;;10.98;;
68097;SDS011;54886;47.036;15.466;2023-03-23T06:23:16;20.02;;;11.00;;
68097;SDS011;54886;47.036;15.466;2023-03-23T06:25:42;23.48;;;11.02;;
68097;SDS011;54886;47.036;15.466;2023-03-23T06:28:08;20.10;;;10.05;;
68097;SDS011;54886;47.036;15.466;2023-03-23T06:30:34;19.80;;;10.05;;
68097;SDS011;54886;47.036;15.466;2023-03-23T06:33:00;16.40;;;10.05;;
68097;SDS011;54886;47.036;15.466;2023-03-23T06:35:27;17.40;;;10.10;;
68097;SDS011;54886;47.036;15.466;2023-03-23T06:37:52;20.77;;;9.70;;
68097;SDS011;54886;47.036;15.466;2023-03-23T06:40:19;15.43;;;9.15;;
68097;SDS011;54886;47.036;15.466;2023-03-23T06:42:44;17.83;;;9.98;;
68097;SDS011;54886;47.036;15.466;2023-03-23T06:45:10;17.42;;;9.68;;
68097;SDS011;54886;47.036;15.466;2023-03-23T06:47:35;14.10;;;8.43;;
68097;SDS011;54886;47.036;15.466;2023-03-23T06:50:01;13.40;;;7.85;;
68097;SDS011;54886;47.036;15.466;2023-03-23T06:52:27;17.23;;;8.65;;
68097;SDS011;54886;47.036;15.466;2023-03-23T06:54:52;14.10;;;7.80;;
68097;SDS011;54886;47.036;15.466;2023-03-23T06:57:18;13.98;;;7.53;;
68097;SDS011;54886;47.036;15.466;2023-03-23T06:59:45;14.10;;;7.97;;
68097;SDS011;54886;47.036;15.466;2023-03-23T07:02:11;16.85;;;8.02;;
68097;SDS011;54886;47.036;15.466;2023-03-23T07:04:38;15.32;;;8.85;;
68097;SDS011;54886;47.036;15.466;2023-03-23T07:07:05;20.30;;;8.88;;
68097;SDS011;54886;47.036;15.466;2023-03-23T07:09:32;14.50;;;8.75;;
68097;SDS011;54886;47.036;15.466;2023-03-23T07:11:57;14.80;;;9.07;;
68097;SDS011;54886;47.036;15.466;2023-03-23T07:14:23;16.58;;;8.77;;
68097;SDS011;54886;47.036;15.466;2023-03-23T07:16:48;17.33;;;8.70;;
68097;SDS011;54886;47.036;15.466;2023-03-23T07:22:36;13.80;;;8.80;;
68097;SDS011;54886;47.036;15.466;2023-03-23T07:25:03;15.10;;;8.77;;
68097;SDS011;54886;47.036;15.466;2023-03-23T07:27:30;17.83;;;8.50;;
68097;SDS011;54886;47.036;15.466;2023-03-23T07:33:17;19.92;;;10.43;;
68097;SDS011;54886;47.036;15.466;2023-03-23T07:35:43;19.48;;;9.45;;
68097;SDS011;54886;47.036;15.466;2023-03-23T07:38:09;17.55;;;9.50;;
68097;SDS011;54886;47.036;15.466;2023-03-23T07:43:56;19.67;;;9.82;;
68097;SDS011;54886;47.036;15.466;2023-03-23T07:46:21;22.95;;;10.23;;
68097;SDS011;54886;47.036;15.466;2023-03-23T07:48:47;19.45;;;10.10;;
68097;SDS011;54886;47.036;15.466;2023-03-23T07:54:35;19.08;;;9.63;;
68097;SDS011;54886;47.036;15.466;2023-03-23T07:57:01;16.52;;;9.25;;
68097;SDS011;54886;47.036;15.466;2023-03-23T07:59:27;16.88;;;8.77;;
68097;SDS011;54886;47.036;15.466;2023-03-23T08:01:52;16.80;;;9.00;;
68097;SDS011;54886;47.036;15.466;2023-03-23T08:04:18;16.13;;;8.75;;
68097;SDS011;54886;47.036;15.466;2023-03-23T08:06:44;19.10;;;9.90;;
68097;SDS011;54886;47.036;15.466;2023-03-23T08:09:10;16.77;;;9.50;;
68097;SDS011;54886;47.036;15.466;2023-03-23T08:14:58;15.32;;;8.75;;
68097;SDS011;54886;47.036;15.466;2023-03-23T08:17:24;21.85;;;9.05;;
68097;SDS011;54886;47.036;15.466;2023-03-23T08:19:50;14.30;;;8.00;;
68097;SDS011;54886;47.036;15.466;2023-03-23T08:25:39;15.60;;;8.48;;
68097;SDS011;54886;47.036;15.466;2023-03-23T08:28:04;16.58;;;9.00;;
68097;SDS011;54886;47.036;15.466;2023-03-23T08:30:30;19.92;;;9.05;;
68097;SDS011;54886;47.036;15.466;2023-03-23T08:36:19;16.90;;;8.68;;
68097;SDS011;54886;47.036;15.466;2023-03-23T08:38:45;17.02;;;9.15;;
68097;SDS011;54886;47.036;15.466;2023-03-23T08:41:10;15.73;;;9.15;;
68097;SDS011;54886;47.036;15.466;2023-03-23T08:43:39;15.23;;;8.45;;
68097;SDS011;54886;47.036;15.466;2023-03-23T08:46:05;16.73;;;8.43;;
68097;SDS011;54886;47.036;15.466;2023-03-23T08:51:56;14.40;;;8.10;;
68097;SDS011;54886;47.036;15.466;2023-03-23T09:01:37;17.90;;;8.20;;
68097;SDS011;54886;47.036;15.466;2023-03-23T09:07:26;14.98;;;8.32;;
68097;SDS011;54886;47.036;15.466;2023-03-23T09:09:51;13.43;;;8.10;;
68097;SDS011;54886;47.036;15.466;2023-03-23T09:12:18;17.98;;;8.45;;
68097;SDS011;54886;47.036;15.466;2023-03-23T09:18:05;15.05;;;8.23;;
68097;SDS011;54886;47.036;15.466;2023-03-23T09:20:30;18.15;;;8.40;;
68097;SDS011;54886;47.036;15.466;2023-03-23T09:22:56;15.20;;;8.27;;
68097;SDS011;54886;47.036;15.466;2023-03-23T09:28:44;15.82;;;8.02;;
68097;SDS011;54886;47.036;15.466;2023-03-23T09:31:11;14.68;;;8.10;;
68097;SDS011;54886;47.036;15.466;2023-03-23T09:33:38;15.65;;;7.80;;
68097;SDS011;54886;47.036;15.466;2023-03-23T09:36:03;20.23;;;8.00;;
68097;SDS011;54886;47.036;15.466;2023-03-23T09:38:33;20.35;;;8.60;;
68097;SDS011;54886;47.036;15.466;2023-03-23T09:46:37;16.55;;;8.10;;
68097;SDS011;54886;47.036;15.466;2023-03-23T09:52:39;18.58;;;7.55;;
68097;SDS011;54886;47.036;15.466;2023-03-23T09:58:46;15.00;;;7.63;;
68097;SDS011;54886;47.036;15.466;2023-03-23T10:04:49;16.77;;;7.45;;
68097;SDS011;54886;47.036;15.466;2023-03-23T10:07:18;15.65;;;7.45;;
68097;SDS011;54886;47.036;15.466;2023-03-23T10:09:47;17.88;;;7.45;;
68097;SDS011;54886;47.036;15.466;2023-03-23T10:22:55;13.93;;;7.17;;
68097;SDS011;54886;47.036;15.466;2023-03-23T10:25:23;9.73;;;5.80;;
68097;SDS011;54886;47.036;15.466;2023-03-23T10:34:31;16.80;;;8.18;;
68097;SDS011;54886;47.036;15.466;2023-03-23T10:40:23;16.63;;;8.18;;
68097;SDS011;54886;47.036;15.466;2023-03-23T10:52:27;12.88;;;5.95;;
68097;SDS011;54886;47.036;15.466;2023-03-23T11:01:04;14.02;;;6.28;;
68097;SDS011;54886;47.036;15.466;2023-03-23T11:06:52;9.20;;;5.72;;
68097;SDS011;54886;47.036;15.466;2023-03-23T11:09:20;13.65;;;6.10;;
68097;SDS011;54886;47.036;15.466;2023-03-23T11:11:58;11.77;;;6.05;;
68097;SDS011;54886;47.036;15.466;2023-03-23T11:17:54;10.98;;;6.03;;
68097;SDS011;54886;47.036;15.466;2023-03-23T11:20:25;9.48;;;5.38;;
68097;SDS011;54886;47.036;15.466;2023-03-23T11:22:52;12.45;;;6.35;;
68097;SDS011;54886;47.036;15.466;2023-03-23T11:25:18;10.65;;;5.85;;
68097;SDS011;54886;47.036;15.466;2023-03-23T11:27:44;12.18;;;5.95;;
68097;SDS011;54886;47.036;15.466;2023-03-23T11:33:35;9.90;;;6.03;;
68097;SDS011;54886;47.036;15.466;2023-03-23T11:39:26;12.65;;;5.32;;
68097;SDS011;54886;47.036;15.466;2023-03-23T11:41:58;9.57;;;4.90;;
68097;SDS011;54886;47.036;15.466;2023-03-23T11:54:02;10.77;;;4.88;;
68097;SDS011;54886;47.036;15.466;2023-03-23T11:56:36;8.82;;;5.20;;
68097;SDS011;54886;47.036;15.466;2023-03-23T11:59:08;8.82;;;5.30;;
68097;SDS011;54886;47.036;15.466;2023-03-23T12:01:46;7.78;;;5.00;;
68097;SDS011;54886;47.036;15.466;2023-03-23T12:07:49;10.18;;;5.05;;
68097;SDS011;54886;47.036;15.466;2023-03-23T12:13:56;9.75;;;5.43;;
68097;SDS011;54886;47.036;15.466;2023-03-23T12:20:13;9.27;;;5.57;;
68097;SDS011;54886;47.036;15.466;2023-03-23T12:23:05;8.60;;;5.32;;
68097;SDS011;54886;47.036;15.466;2023-03-23T12:37:37;11.35;;;6.00;;
68097;SDS011;54886;47.036;15.466;2023-03-23T12:46:07;10.23;;;5.35;;
68097;SDS011;54886;47.036;15.466;2023-03-23T12:48:45;11.20;;;5.85;;
68097;SDS011;54886;47.036;15.466;2023-03-23T12:54:42;10.93;;;5.65;;
68097;SDS011;54886;47.036;15.466;2023-03-23T13:01:08;9.13;;;5.32;;
68097;SDS011;54886;47.036;15.466;2023-03-23T13:08:53;12.15;;;5.72;;
68097;SDS011;54886;47.036;15.466;2023-03-23T13:11:28;11.15;;;5.55;;
68097;SDS011;54886;47.036;15.466;2023-03-23T13:26:00;10.38;;;5.40;;
68097;SDS011;54886;47.036;15.466;2023-03-23T13:32:06;10.77;;;5.40;;
68097;SDS011;54886;47.036;15.466;2023-03-23T13:37:58;10.13;;;5.38;;
68097;SDS011;54886;47.036;15.466;2023-03-23T13:40:24;9.55;;;5.70;;
68097;SDS011;54886;47.036;15.466;2023-03-23T13:52:15;10.70;;;4.93;;
68097;SDS011;54886;47.036;15.466;2023-03-23T14:08:01;8.68;;;4.93;;
68097;SDS011;54886;47.036;15.466;2023-03-23T14:16:42;10.45;;;5.18;;
68097;SDS011;54886;47.036;15.466;2023-03-23T14:19:17;9.27;;;4.93;;
68097;SDS011;54886;47.036;15.466;2023-03-23T14:21:49;7.82;;;4.35;;
68097;SDS011;54886;47.036;15.466;2023-03-23T14:24:24;10.48;;;4.47;;
68097;SDS011;54886;47.036;15.466;2023-03-23T14:26:53;9.27;;;4.30;;
68097;SDS011;54886;47.036;15.466;2023-03-23T14:33:01;8.02;;;3.97;;
68097;SDS011;54886;47.036;15.466;2023-03-23T14:38:57;7.63;;;4.10;;
68097;SDS011;54886;47.036;15.466;2023-03-23T14:44:52;7.72;;;3.72;;
68097;SDS011;54886;47.036;15.466;2023-03-23T14:53:45;8.68;;;3.92;;
68097;SDS011;54886;47.036;15.466;2023-03-23T14:59:34;7.75;;;3.72;;
68097;SDS011;54886;47.036;15.466;2023-03-23T15:05:35;8.77;;;3.80;;
68097;SDS011;54886;47.036;15.466;2023-03-23T15:11:30;10.32;;;3.90;;
68097;SDS011;54886;47.036;15.466;2023-03-23T15:17:28;6.53;;;3.65;;
68097;SDS011;54886;47.036;15.466;2023-03-23T15:19:56;10.20;;;3.80;;
68097;SDS011;54886;47.036;15.466;2023-03-23T15:22:27;7.28;;;3.55;;
68097;SDS011;54886;47.036;15.466;2023-03-23T15:27:33;8.27;;;3.90;;
68097;SDS011;54886;47.036;15.466;2023-03-23T15:32:52;5.72;;;3.55;;
68097;SDS011;54886;47.036;15.466;2023-03-23T15:35:56;7.43;;;3.53;;
68097;SDS011;54886;47.036;15.466;2023-03-23T15:41:47;8.15;;;3.75;;
68097;SDS011;54886;47.036;15.466;2023-03-23T15:53:31;9.95;;;4.03;;
68097;SDS011;54886;47.036;15.466;2023-03-23T15:56:04;7.75;;;3.72;;
68097;SDS011;54886;47.036;15.466;2023-03-23T15:58:31;7.53;;;3.75;;
68097;SDS011;54886;47.036;15.466;2023-03-23T16:04:19;6.93;;;3.78;;
68097;SDS011;54886;47.036;15.466;2023-03-23T16:06:45;5.47;;;3.40;;
68097;SDS011;54886;47.036;15.466;2023-03-23T16:09:15;7.28;;;3.85;;
68097;SDS011;54886;47.036;15.466;2023-03-23T16:12:37;5.85;;;3.50;;
68097;SDS011;54886;47.036;15.466;2023-03-23T16:18:24;7.85;;;3.78;;
68097;SDS011;54886;47.036;15.466;2023-03-23T16:24:12;6.32;;;3.47;;
68097;SDS011;54886;47.036;15.466;2023-03-23T16:26:38;6.00;;;3.88;;
68097;SDS011;54886;47.036;15.466;2023-03-23T16:29:14;8.55;;;3.97;;
68097;SDS011;54886;47.036;15.466;2023-03-23T16:35:03;7.05;;;3.97;;
68097;SDS011;54886;47.036;15.466;2023-03-23T16:37:29;8.27;;;4.10;;
68097;SDS011;54886;47.036;15.466;2023-03-23T16:39:57;8.38;;;4.22;;
68097;SDS011;54886;47.036;15.466;2023-03-23T16:45:45;8.90;;;4.30;;
68097;SDS011;54886;47.036;15.466;2023-03-23T16:48:12;12.27;;;4.70;;
68097;SDS011;54886;47.036;15.466;2023-03-23T16:50:40;10.10;;;4.82;;
68097;SDS011;54886;47.036;15.466;2023-03-23T16:53:06;9.18;;;4.60;;
68097;SDS011;54886;47.036;15.466;2023-03-23T16:55:36;8.82;;;4.78;;
68097;SDS011;54886;47.036;15.466;2023-03-23T17:01:24;7.45;;;4.43;;
68097;SDS011;54886;47.036;15.466;2023-03-23T17:03:49;10.80;;;4.57;;
68097;SDS011;54886;47.036;15.466;2023-03-23T17:06:15;7.85;;;4.70;;
68097;SDS011;54886;47.036;15.466;2023-03-23T17:08:41;10.43;;;4.60;;
68097;SDS011;54886;47.036;15.466;2023-03-23T17:11:07;11.07;;;4.75;;
68097;SDS011;54886;47.036;15.466;2023-03-23T17:16:57;9.20;;;4.88;;
68097;SDS011;54886;47.036;15.466;2023-03-23T17:19:23;9.87;;;4.70;;
68097;SDS011;54886;47.036;15.466;2023-03-23T17:21:50;10.50;;;4.90;;
68097;SDS011;54886;47.036;15.466;2023-03-23T17:24:16;10.57;;;5.10;;
68097;SDS011;54886;47.036;15.466;2023-03-23T17:30:05;12.98;;;5.57;;
68097;SDS011;54886;47.036;15.466;2023-03-23T17:35:35;12.88;;;5.20;;
68097;SDS011;54886;47.036;15.466;2023-03-23T17:41:22;10.07;;;4.85;;
68097;SDS011;54886;47.036;15.466;2023-03-23T17:47:10;11.68;;;5.07;;
68097;SDS011;54886;47.036;15.466;2023-03-23T17:52:58;14.32;;;5.65;;
68097;SDS011;54886;47.036;15.466;2023-03-23T17:58:48;14.77;;;5.60;;
68097;SDS011;54886;47.036;15.466;2023-03-23T18:01:14;18.60;;;5.90;;
68097;SDS011;54886;47.036;15.466;2023-03-23T18:03:40;19.85;;;5.88;;
68097;SDS011;54886;47.036;15.466;2023-03-23T18:06:06;16.38;;;5.60;;
68097;SDS011;54886;47.036;15.466;2023-03-23T18:08:33;14.65;;;5.80;;
68097;SDS011;54886;47.036;15.466;2023-03-23T18:10:59;15.93;;;6.13;;
68097;SDS011;54886;47.036;15.466;2023-03-23T18:13:26;19.98;;;5.72;;
68097;SDS011;54886;47.036;15.466;2023-03-23T18:15:53;18.63;;;5.93;;
68097;SDS011;54886;47.036;15.466;2023-03-23T18:21:41;11.43;;;5.32;;
68097;SDS011;54886;47.036;15.466;2023-03-23T18:24:07;14.00;;;5.90;;
68097;SDS011;54886;47.036;15.466;2023-03-23T18:26:33;18.27;;;5.97;;
68097;SDS011;54886;47.036;15.466;2023-03-23T18:28:59;18.85;;;5.65;;
68097;SDS011;54886;47.036;15.466;2023-03-23T18:31:25;12.45;;;5.55;;
68097;SDS011;54886;47.036;15.466;2023-03-23T18:33:51;16.38;;;6.63;;
68097;SDS011;54886;47.036;15.466;2023-03-23T18:39:40;18.92;;;6.47;;
68097;SDS011;54886;47.036;15.466;2023-03-23T18:42:06;14.75;;;7.22;;
68097;SDS011;54886;47.036;15.466;2023-03-23T18:44:32;17.75;;;7.60;;
68097;SDS011;54886;47.036;15.466;2023-03-23T18:50:19;12.07;;;6.72;;
68097;SDS011;54886;47.036;15.466;2023-03-23T18:52:45;11.98;;;6.40;;
68097;SDS011;54886;47.036;15.466;2023-03-23T18:55:11;14.30;;;6.70;;
68097;SDS011;54886;47.036;15.466;2023-03-23T18:57:39;17.73;;;7.55;;
68097;SDS011;54886;47.036;15.466;2023-03-23T19:00:07;12.48;;;7.05;;
68097;SDS011;54886;47.036;15.466;2023-03-23T19:02:34;18.25;;;7.20;;
68097;SDS011;54886;47.036;15.466;2023-03-23T19:08:21;14.52;;;6.93;;
68097;SDS011;54886;47.036;15.466;2023-03-23T19:10:47;15.68;;;7.10;;
68097;SDS011;54886;47.036;15.466;2023-03-23T19:13:13;13.90;;;6.55;;
68097;SDS011;54886;47.036;15.466;2023-03-23T19:15:41;13.57;;;7.28;;
68097;SDS011;54886;47.036;15.466;2023-03-23T19:18:07;13.52;;;7.00;;
68097;SDS011;54886;47.036;15.466;2023-03-23T19:20:33;14.30;;;7.93;;
68097;SDS011;54886;47.036;15.466;2023-03-23T19:23:11;14.82;;;7.72;;
68097;SDS011;54886;47.036;15.466;2023-03-23T19:28:39;12.68;;;7.70;;
68097;SDS011;54886;47.036;15.466;2023-03-23T19:31:06;14.93;;;7.65;;
68097;SDS011;54886;47.036;15.466;2023-03-23T19:33:32;13.25;;;7.57;;
68097;SDS011;54886;47.036;15.466;2023-03-23T19:35:58;16.38;;;8.00;;
68097;SDS011;54886;47.036;15.466;2023-03-23T19:38:23;15.77;;;7.90;;
68097;SDS011;54886;47.036;15.466;2023-03-23T19:40:50;16.08;;;8.73;;
68097;SDS011;54886;47.036;15.466;2023-03-23T19:46:39;15.18;;;8.45;;
68097;SDS011;54886;47.036;15.466;2023-03-23T19:49:05;19.65;;;8.98;;
68097;SDS011;54886;47.036;15.466;2023-03-23T19:51:30;17.15;;;9.30;;
68097;SDS011;54886;47.036;15.466;2023-03-23T19:53:56;13.88;;;8.20;;
68097;SDS011;54886;47.036;15.466;2023-03-23T19:56:22;13.48;;;7.97;;
68097;SDS011;54886;47.036;15.466;2023-03-23T20:02:10;14.15;;;7.72;;
68097;SDS011;54886;47.036;15.466;2023-03-23T20:04:36;15.80;;;7.88;;
68097;SDS011;54886;47.036;15.466;2023-03-23T20:07:03;15.88;;;7.10;;
68097;SDS011;54886;47.036;15.466;2023-03-23T20:12:57;14.68;;;7.32;;
68097;SDS011;54886;47.036;15.466;2023-03-23T20:15:23;11.07;;;7.22;;
68097;SDS011;54886;47.036;15.466;2023-03-23T20:17:49;13.05;;;7.32;;
68097;SDS011;54886;47.036;15.466;2023-03-23T20:20:15;13.35;;;7.15;;
68097;SDS011;54886;47.036;15.466;2023-03-23T20:22:41;11.07;;;7.10;;
68097;SDS011;54886;47.036;15.466;2023-03-23T20:25:07;14.30;;;7.07;;
68097;SDS011;54886;47.036;15.466;2023-03-23T20:36:52;12.77;;;6.53;;
68097;SDS011;54886;47.036;15.466;2023-03-23T20:42:40;9.88;;;6.70;;
68097;SDS011;54886;47.036;15.466;2023-03-23T20:48:10;10.48;;;6.90;;
68097;SDS011;54886;47.036;15.466;2023-03-23T20:53:57;11.63;;;7.15;;
68097;SDS011;54886;47.036;15.466;2023-03-23T20:56:24;12.73;;;7.05;;